createdAt,value
2018-10-09T00:01:32.001Z,11.60
2018-10-09T00:03:59.432Z,11.60
2018-10-09T00:06:27.131Z,11.60
2018-10-09T00:08:54.572Z,11.70
2018-10-09T00:11:22.017Z,11.60
2018-10-09T00:13:49.444Z,11.70
2018-10-09T00:16:16.924Z,11.50
2018-10-09T00:18:44.456Z,11.30
2018-10-09T00:21:11.969Z,11.30
2018-10-09T00:23:39.461Z,11.40
2018-10-09T00:26:06.917Z,11.50
2018-10-09T00:28:34.350Z,11.60
2018-10-09T00:31:01.776Z,11.60
2018-10-09T00:33:29.265Z,11.60
2018-10-09T00:35:56.801Z,11.60
2018-10-09T00:38:24.316Z,11.60
2018-10-09T00:40:51.848Z,11.50
2018-10-09T00:43:19.293Z,11.30
2018-10-09T00:45:46.725Z,11.40
2018-10-09T00:48:14.237Z,11.50
2018-10-09T00:50:41.685Z,11.50
2018-10-09T00:53:09.252Z,11.60
2018-10-09T00:55:36.694Z,11.30
2018-10-09T00:58:04.138Z,11.10
2018-10-09T01:00:31.595Z,11.20
2018-10-09T01:02:59.046Z,11.40
2018-10-09T01:05:26.469Z,11.40
2018-10-09T01:07:54.136Z,11.40
2018-10-09T01:10:21.636Z,11.40
2018-10-09T01:12:49.086Z,11.40
2018-10-09T01:15:16.545Z,11.30
2018-10-09T01:17:43.960Z,11.30
2018-10-09T01:20:11.389Z,11.40
2018-10-09T01:22:38.945Z,11.30
2018-10-09T01:25:06.392Z,11.20
2018-10-09T01:27:33.877Z,11.10
2018-10-09T01:30:07.324Z,11.10
2018-10-09T01:32:34.790Z,11.20
2018-10-09T01:35:02.236Z,11.30
2018-10-09T01:37:29.692Z,11.30
2018-10-09T01:39:57.216Z,11.30
2018-10-09T01:42:24.642Z,11.20
2018-10-09T01:44:52.073Z,11.20
2018-10-09T01:47:19.597Z,11.20
2018-10-09T01:49:47.032Z,11.30
2018-10-09T01:52:14.480Z,11.30
2018-10-09T01:54:41.982Z,11.30
2018-10-09T01:57:09.430Z,11.30
2018-10-09T01:59:36.945Z,11.30
2018-10-09T02:02:04.388Z,11.30
2018-10-09T02:04:31.916Z,11.30
2018-10-09T02:06:59.351Z,11.30
2018-10-09T02:09:26.784Z,11.30
2018-10-09T02:11:54.208Z,11.30
2018-10-09T02:14:21.653Z,11.30
2018-10-09T02:16:49.141Z,11.10
2018-10-09T02:19:16.588Z,11.10
2018-10-09T02:21:44.100Z,11.00
2018-10-09T02:24:11.541Z,11.00
2018-10-09T02:26:38.980Z,11.10
2018-10-09T02:29:06.444Z,11.00
2018-10-09T02:31:33.873Z,11.00
2018-10-09T02:34:01.430Z,10.90
2018-10-09T02:36:28.864Z,11.00
2018-10-09T02:38:56.410Z,11.00
2018-10-09T02:41:23.831Z,11.00
2018-10-09T02:43:51.276Z,10.90
2018-10-09T02:46:18.739Z,10.90
2018-10-09T02:48:46.176Z,10.90
2018-10-09T02:51:13.653Z,10.90
2018-10-09T02:53:41.092Z,10.90
2018-10-09T02:56:09.681Z,10.90
2018-10-09T02:58:37.122Z,10.90
2018-10-09T03:01:04.552Z,10.90
2018-10-09T03:03:32.004Z,10.90
2018-10-09T03:05:59.442Z,10.90
2018-10-09T03:08:27.001Z,11.00
2018-10-09T03:10:54.377Z,10.80
2018-10-09T03:13:21.843Z,10.90
2018-10-09T03:15:49.369Z,10.90
2018-10-09T03:18:17.913Z,10.80
2018-10-09T03:20:45.427Z,10.70
2018-10-09T03:23:12.809Z,10.60
2018-10-09T03:25:40.252Z,10.50
2018-10-09T03:28:07.733Z,10.30
2018-10-09T03:30:35.213Z,10.20
2018-10-09T03:33:02.657Z,10.10
2018-10-09T03:35:30.113Z,10.10
2018-10-09T03:37:57.581Z,10.10
2018-10-09T03:40:25.017Z,10.10
2018-10-09T03:42:52.548Z,10.20
2018-10-09T03:45:20.229Z,10.30
2018-10-09T03:47:47.668Z,10.40
2018-10-09T03:50:15.105Z,10.40
2018-10-09T03:52:42.545Z,10.40
2018-10-09T03:55:10.005Z,10.40
2018-10-09T03:57:37.457Z,10.40
2018-10-09T04:00:05.017Z,10.30
2018-10-09T04:02:32.467Z,10.30
2018-10-09T04:04:59.981Z,10.30
2018-10-09T04:07:27.416Z,10.20
2018-10-09T04:09:54.867Z,10.30
2018-10-09T04:12:22.312Z,10.20
2018-10-09T04:14:49.753Z,10.30
2018-10-09T04:17:17.300Z,10.30
2018-10-09T04:19:44.749Z,10.30
2018-10-09T04:22:16.708Z,10.30
2018-10-09T04:24:44.158Z,10.30
2018-10-09T04:27:11.585Z,10.20
2018-10-09T04:29:39.919Z,10.20
2018-10-09T04:32:07.336Z,10.20
2018-10-09T04:34:34.846Z,10.20
2018-10-09T04:37:02.317Z,10.20
2018-10-09T04:39:29.752Z,10.20
2018-10-09T04:41:57.209Z,10.20
2018-10-09T04:44:24.644Z,10.20
2018-10-09T04:46:52.137Z,10.20
2018-10-09T04:49:19.616Z,10.20
2018-10-09T04:51:47.061Z,10.30
2018-10-09T04:54:14.610Z,10.30
2018-10-09T04:56:42.057Z,10.30
2018-10-09T04:59:09.491Z,10.30
2018-10-09T05:01:36.924Z,10.30
2018-10-09T05:04:04.381Z,10.30
2018-10-09T05:06:31.807Z,10.40
2018-10-09T05:08:59.244Z,10.40
2018-10-09T05:11:26.852Z,10.30
2018-10-09T05:13:54.291Z,10.30
2018-10-09T05:16:21.728Z,10.30
2018-10-09T05:18:49.276Z,10.30
2018-10-09T05:21:16.719Z,10.30
2018-10-09T05:23:44.152Z,10.30
2018-10-09T05:26:11.596Z,10.10
2018-10-09T05:28:39.211Z,9.90
2018-10-09T05:31:06.728Z,9.80
2018-10-09T05:33:34.072Z,9.90
2018-10-09T05:36:01.531Z,9.90
2018-10-09T05:38:28.957Z,9.90
2018-10-09T05:40:56.473Z,9.90
2018-10-09T05:43:23.931Z,9.90
2018-10-09T05:45:51.437Z,9.90
2018-10-09T05:48:18.909Z,10.00
2018-10-09T05:50:46.359Z,10.00
2018-10-09T05:53:13.800Z,9.80
2018-10-09T05:55:41.268Z,9.80
2018-10-09T05:58:08.863Z,9.90
2018-10-09T06:00:36.238Z,9.90
2018-10-09T06:03:03.664Z,9.90
2018-10-09T06:05:31.237Z,10.00
2018-10-09T06:07:58.669Z,10.00
2018-10-09T06:10:26.123Z,10.00
2018-10-09T06:12:53.556Z,10.00
2018-10-09T06:15:21.140Z,10.10
2018-10-09T06:17:48.565Z,10.20
2018-10-09T06:20:15.996Z,10.20
2018-10-09T06:22:43.500Z,10.20
2018-10-09T06:25:10.941Z,10.30
2018-10-09T06:27:38.369Z,10.30
2018-10-09T06:30:05.821Z,10.40
2018-10-09T06:32:33.336Z,10.50
2018-10-09T06:35:00.848Z,10.50
2018-10-09T06:37:28.289Z,10.60
2018-10-09T06:39:55.788Z,10.60
2018-10-09T06:42:23.221Z,10.70
2018-10-09T06:44:50.668Z,10.70
2018-10-09T06:47:18.405Z,10.80
2018-10-09T06:49:47.035Z,10.90
2018-10-09T06:52:14.472Z,10.90
2018-10-09T06:54:42.154Z,10.90
2018-10-09T06:57:16.309Z,11.00
2018-10-09T06:59:43.873Z,11.10
2018-10-09T07:02:11.411Z,11.20
2018-10-09T07:04:38.873Z,11.30
2018-10-09T07:07:06.484Z,11.50
2018-10-09T07:09:33.924Z,11.60
2018-10-09T07:12:01.361Z,11.70
2018-10-09T07:14:28.789Z,11.90
2018-10-09T07:16:56.284Z,12.00
2018-10-09T07:19:23.691Z,12.10
2018-10-09T07:21:51.531Z,12.20
2018-10-09T07:24:18.960Z,12.30
2018-10-09T07:26:46.377Z,12.40
2018-10-09T07:29:13.809Z,12.50
2018-10-09T07:31:41.226Z,12.60
2018-10-09T07:34:08.622Z,12.80
2018-10-09T07:36:36.104Z,12.90
2018-10-09T07:39:05.034Z,13.00
2018-10-09T07:41:32.562Z,13.10
2018-10-09T07:44:00.052Z,13.30
2018-10-09T07:46:29.280Z,13.50
2018-10-09T07:48:56.715Z,13.80
2018-10-09T07:51:24.244Z,13.90
2018-10-09T07:53:51.669Z,14.10
2018-10-09T07:56:19.189Z,14.30
2018-10-09T07:58:46.776Z,14.60
2018-10-09T08:01:14.138Z,14.90
2018-10-09T08:03:41.642Z,15.40
2018-10-09T08:06:09.238Z,15.70
2018-10-09T08:08:36.801Z,15.90
2018-10-09T08:11:04.221Z,16.00
2018-10-09T08:13:31.704Z,16.60
2018-10-09T08:15:59.114Z,16.60
2018-10-09T08:18:26.579Z,17.00
2018-10-09T08:20:54.032Z,17.10
2018-10-09T08:23:21.479Z,17.10
2018-10-09T08:25:48.948Z,17.30
2018-10-09T08:28:16.385Z,17.60
2018-10-09T08:30:43.873Z,17.80
2018-10-09T08:33:11.300Z,17.60
2018-10-09T08:35:38.716Z,17.30
2018-10-09T08:38:06.149Z,17.50
2018-10-09T08:40:33.588Z,17.60
2018-10-09T08:43:01.063Z,17.90
2018-10-09T08:45:28.455Z,18.10
2018-10-09T08:47:55.875Z,18.20
2018-10-09T08:50:23.448Z,18.40
2018-10-09T08:52:50.953Z,18.50
2018-10-09T08:55:18.377Z,18.60
2018-10-09T08:57:45.814Z,19.00
2018-10-09T09:00:13.238Z,19.10
2018-10-09T09:02:40.676Z,19.30
2018-10-09T09:05:08.627Z,19.30
2018-10-09T09:07:36.125Z,19.20
2018-10-09T09:10:03.551Z,19.30
2018-10-09T09:12:31.003Z,19.10
2018-10-09T09:14:58.506Z,19.20
2018-10-09T09:17:25.969Z,19.10
2018-10-09T09:19:53.402Z,18.40
2018-10-09T09:22:20.839Z,18.20
2018-10-09T09:24:48.357Z,18.00
2018-10-09T09:27:15.906Z,18.00
2018-10-09T09:29:43.362Z,18.10
2018-10-09T09:32:10.775Z,18.30
2018-10-09T09:34:38.424Z,18.30
2018-10-09T09:37:06.116Z,18.30
2018-10-09T09:39:33.537Z,18.50
2018-10-09T09:42:01.012Z,18.60
2018-10-09T09:44:28.476Z,18.90
2018-10-09T09:46:55.936Z,19.20
2018-10-09T09:49:23.384Z,19.30
2018-10-09T09:51:50.804Z,19.40
2018-10-09T09:54:18.366Z,19.60
2018-10-09T09:56:45.768Z,19.50
2018-10-09T09:59:13.393Z,19.50
2018-10-09T10:01:42.743Z,19.40
2018-10-09T10:04:10.698Z,19.30
2018-10-09T10:06:38.199Z,19.50
2018-10-09T10:09:06.267Z,19.90
2018-10-09T10:11:33.729Z,20.20
2018-10-09T10:14:01.182Z,20.50
2018-10-09T10:16:28.623Z,20.80
2018-10-09T10:18:56.119Z,20.90
2018-10-09T10:21:23.640Z,21.20
2018-10-09T10:23:51.276Z,21.40
2018-10-09T10:26:18.790Z,21.60
2018-10-09T10:28:46.211Z,21.60
2018-10-09T10:31:13.681Z,21.50
2018-10-09T10:33:41.080Z,21.10
2018-10-09T10:36:08.598Z,21.40
2018-10-09T10:38:36.016Z,21.60
2018-10-09T10:41:03.487Z,21.10
2018-10-09T10:43:30.946Z,21.50
2018-10-09T10:45:58.433Z,21.70
2018-10-09T10:48:25.847Z,21.80
2018-10-09T10:50:53.385Z,22.20
2018-10-09T10:53:20.813Z,22.40
2018-10-09T10:55:48.274Z,22.60
2018-10-09T10:58:15.704Z,22.80
2018-10-09T11:00:43.204Z,23.10
2018-10-09T11:03:10.620Z,23.30
2018-10-09T11:05:38.068Z,23.70
2018-10-09T11:08:05.758Z,23.80
2018-10-09T11:10:33.134Z,23.80
2018-10-09T11:13:00.937Z,23.70
2018-10-09T11:15:28.356Z,23.50
2018-10-09T11:17:55.795Z,23.60
2018-10-09T11:20:23.326Z,23.50
2018-10-09T11:22:50.728Z,23.40
2018-10-09T11:25:18.303Z,23.40
2018-10-09T11:27:45.744Z,23.40
2018-10-09T11:30:13.165Z,23.10
2018-10-09T11:32:40.584Z,23.00
2018-10-09T11:35:08.031Z,23.00
2018-10-09T11:37:35.636Z,22.50
2018-10-09T11:40:03.131Z,22.40
2018-10-09T11:42:31.060Z,22.50
2018-10-09T11:44:58.524Z,22.40
2018-10-09T11:47:25.955Z,22.30
2018-10-09T11:49:53.405Z,22.40
2018-10-09T11:52:20.848Z,22.30
2018-10-09T11:54:48.319Z,22.30
2018-10-09T11:57:15.733Z,22.30
2018-10-09T11:59:43.191Z,22.30
2018-10-09T12:02:10.612Z,22.30
2018-10-09T12:04:38.062Z,22.30
2018-10-09T12:07:05.517Z,22.30
2018-10-09T12:09:32.935Z,22.20
2018-10-09T12:12:00.444Z,22.10
2018-10-09T12:14:27.881Z,22.00
2018-10-09T12:16:55.326Z,21.90
2018-10-09T12:19:22.760Z,22.10
2018-10-09T12:21:50.314Z,22.00
2018-10-09T12:24:17.616Z,22.00
2018-10-09T12:26:45.136Z,22.00
2018-10-09T12:29:12.557Z,21.80
2018-10-09T12:31:39.992Z,21.70
2018-10-09T12:34:07.763Z,21.80
2018-10-09T12:36:35.319Z,21.70
2018-10-09T12:39:04.316Z,21.70
2018-10-09T12:41:31.732Z,21.80
2018-10-09T12:43:59.285Z,21.70
2018-10-09T12:46:26.669Z,21.70
2018-10-09T12:48:54.084Z,21.60
2018-10-09T12:51:21.492Z,21.40
2018-10-09T12:53:48.908Z,21.50
2018-10-09T12:56:16.332Z,21.50
2018-10-09T12:58:43.799Z,21.60
2018-10-09T13:01:11.165Z,21.60
2018-10-09T13:03:38.581Z,21.50
2018-10-09T13:06:05.988Z,21.50
2018-10-09T13:08:33.418Z,21.60
2018-10-09T13:11:00.928Z,21.60
2018-10-09T13:13:28.353Z,21.60
2018-10-09T13:15:55.761Z,21.40
2018-10-09T13:18:23.276Z,21.50
2018-10-09T13:20:50.769Z,21.50
2018-10-09T13:23:18.192Z,21.50
2018-10-09T13:25:45.619Z,21.40
2018-10-09T13:28:13.072Z,21.40
2018-10-09T13:30:40.473Z,21.30
2018-10-09T13:33:07.893Z,21.40
2018-10-09T13:35:35.363Z,21.30
2018-10-09T13:38:02.820Z,21.40
2018-10-09T13:40:30.270Z,21.40
2018-10-09T13:42:57.707Z,21.30
2018-10-09T13:45:25.191Z,21.30
2018-10-09T13:47:52.604Z,21.30
2018-10-09T13:50:20.105Z,21.30
2018-10-09T13:52:47.472Z,21.30
2018-10-09T13:55:14.938Z,21.30
2018-10-09T13:57:42.387Z,21.30
2018-10-09T14:00:09.803Z,21.20
2018-10-09T14:02:37.260Z,21.20
2018-10-09T14:05:04.761Z,21.20
2018-10-09T14:07:32.249Z,21.20
2018-10-09T14:09:59.696Z,21.30
2018-10-09T14:12:27.092Z,21.40
2018-10-09T14:14:54.530Z,21.30
2018-10-09T14:17:21.988Z,21.30
2018-10-09T14:19:49.441Z,21.30
2018-10-09T14:22:16.880Z,21.40
2018-10-09T14:24:44.267Z,21.30
2018-10-09T14:27:11.680Z,21.30
2018-10-09T14:29:39.075Z,21.40
2018-10-09T14:32:06.493Z,21.40
2018-10-09T14:34:33.900Z,21.40
2018-10-09T14:37:01.335Z,21.40
2018-10-09T14:39:28.760Z,21.40
2018-10-09T14:41:56.258Z,21.50
2018-10-09T14:44:23.709Z,21.30
2018-10-09T14:46:51.117Z,21.40
2018-10-09T14:49:18.524Z,21.40
2018-10-09T14:51:45.947Z,21.40
2018-10-09T14:54:13.396Z,21.40
2018-10-09T14:56:40.843Z,21.40
2018-10-09T14:59:08.329Z,21.40
2018-10-09T15:01:35.732Z,21.50
2018-10-09T15:04:03.171Z,21.40
2018-10-09T15:06:30.592Z,21.40
2018-10-09T15:08:58.306Z,21.50
2018-10-09T15:11:25.744Z,21.50
2018-10-09T15:13:53.225Z,21.40
2018-10-09T15:16:20.623Z,21.40
2018-10-09T15:18:48.073Z,21.50
2018-10-09T15:21:15.502Z,21.50
2018-10-09T15:23:42.930Z,21.60
2018-10-09T15:26:10.368Z,21.50
2018-10-09T15:28:37.844Z,21.30
2018-10-09T15:31:05.485Z,21.30
2018-10-09T15:33:33.196Z,21.30
2018-10-09T15:36:00.608Z,21.30
2018-10-09T15:38:28.036Z,21.30
2018-10-09T15:40:55.443Z,21.30
2018-10-09T15:43:22.885Z,21.40
2018-10-09T15:45:50.310Z,21.40
2018-10-09T15:48:17.724Z,21.50
2018-10-09T15:50:45.228Z,21.40
2018-10-09T15:53:12.680Z,21.40
2018-10-09T15:55:40.200Z,21.30
2018-10-09T15:58:07.724Z,21.20
2018-10-09T16:00:36.023Z,21.20
2018-10-09T16:03:03.585Z,21.30
2018-10-09T16:05:31.014Z,21.20
2018-10-09T16:07:58.468Z,21.30
2018-10-09T16:10:25.891Z,21.30
2018-10-09T16:12:53.462Z,21.30
2018-10-09T16:15:20.944Z,21.20
2018-10-09T16:17:48.387Z,21.40
2018-10-09T16:20:15.791Z,21.40
2018-10-09T16:22:43.367Z,21.40
2018-10-09T16:25:10.995Z,21.40
2018-10-09T16:27:39.444Z,21.30
2018-10-09T16:30:07.057Z,21.20
2018-10-09T16:32:34.787Z,21.10
2018-10-09T16:35:02.147Z,21.00
2018-10-09T16:37:29.585Z,20.90
2018-10-09T16:39:56.997Z,20.90
2018-10-09T16:42:24.513Z,20.70
2018-10-09T16:44:51.986Z,20.60
2018-10-09T16:47:19.544Z,20.60
2018-10-09T16:49:46.954Z,20.50
2018-10-09T16:52:14.423Z,20.30
2018-10-09T16:54:41.900Z,20.20
2018-10-09T16:57:09.315Z,20.10
2018-10-09T16:59:36.855Z,20.00
2018-10-09T17:02:04.265Z,19.80
2018-10-09T17:04:31.839Z,19.80
2018-10-09T17:06:59.283Z,19.60
2018-10-09T17:09:26.748Z,19.50
2018-10-09T17:11:54.223Z,19.40
2018-10-09T17:14:21.639Z,19.30
2018-10-09T17:16:49.281Z,19.30
2018-10-09T17:19:16.698Z,19.20
2018-10-09T17:21:44.420Z,19.10
2018-10-09T17:24:11.870Z,19.00
2018-10-09T17:26:39.332Z,18.80
2018-10-09T17:29:06.749Z,18.80
2018-10-09T17:31:34.266Z,18.80
2018-10-09T17:34:01.738Z,18.80
2018-10-09T17:36:30.234Z,18.70
2018-10-09T17:38:57.783Z,18.50
2018-10-09T17:41:25.181Z,18.40
2018-10-09T17:43:52.576Z,18.40
2018-10-09T17:46:20.086Z,18.30
2018-10-09T17:48:47.510Z,18.20
2018-10-09T17:51:14.999Z,18.10
2018-10-09T17:53:42.446Z,18.00
2018-10-09T17:56:09.902Z,18.00
2018-10-09T17:58:37.305Z,17.90
2018-10-09T18:01:04.819Z,17.90
2018-10-09T18:03:32.217Z,17.90
2018-10-09T18:05:59.626Z,17.80
2018-10-09T18:08:31.073Z,17.80
2018-10-09T18:10:58.713Z,17.70
2018-10-09T18:13:26.130Z,17.60
2018-10-09T18:15:53.577Z,17.40
2018-10-09T18:18:20.980Z,17.30
2018-10-09T18:20:48.449Z,17.30
2018-10-09T18:23:15.876Z,17.20
2018-10-09T18:25:43.293Z,17.00
2018-10-09T18:28:10.957Z,16.90
2018-10-09T18:30:38.360Z,16.80
2018-10-09T18:33:05.994Z,16.80
2018-10-09T18:35:33.184Z,16.80
2018-10-09T18:38:00.652Z,16.80
2018-10-09T18:40:28.218Z,16.70
2018-10-09T18:42:55.668Z,16.60
2018-10-09T18:45:23.108Z,16.70
2018-10-09T18:47:50.538Z,16.70
2018-10-09T18:50:17.955Z,16.70
2018-10-09T18:52:45.369Z,16.70
2018-10-09T18:55:15.560Z,16.80
2018-10-09T18:57:43.377Z,16.70
2018-10-09T19:00:12.897Z,16.60
2018-10-09T19:02:40.470Z,16.60
2018-10-09T19:05:08.397Z,16.60
2018-10-09T19:07:35.948Z,16.60
2018-10-09T19:10:03.392Z,16.50
2018-10-09T19:12:30.811Z,16.40
2018-10-09T19:14:58.211Z,16.30
2018-10-09T19:17:25.741Z,16.30
2018-10-09T19:19:53.147Z,16.20
2018-10-09T19:22:21.657Z,16.10
2018-10-09T19:24:49.070Z,15.90
2018-10-09T19:27:17.590Z,15.80
2018-10-09T19:29:44.997Z,15.70
2018-10-09T19:32:12.524Z,15.60
2018-10-09T19:34:39.928Z,15.50
2018-10-09T19:37:07.436Z,15.40
2018-10-09T19:39:34.871Z,15.30
2018-10-09T19:42:02.299Z,15.30
2018-10-09T19:44:29.896Z,15.30
2018-10-09T19:46:57.311Z,15.20
2018-10-09T19:49:24.780Z,15.10
2018-10-09T19:51:52.190Z,15.10
2018-10-09T19:54:19.623Z,15.00
2018-10-09T19:56:47.085Z,14.90
2018-10-09T19:59:14.602Z,14.90
2018-10-09T20:01:42.193Z,14.90
2018-10-09T20:04:09.600Z,14.90
2018-10-09T20:06:38.140Z,14.70
2018-10-09T20:09:07.993Z,14.70
2018-10-09T20:11:35.476Z,14.70
2018-10-09T20:14:02.882Z,14.70
2018-10-09T20:16:31.348Z,14.70
2018-10-09T20:18:58.772Z,14.70
2018-10-09T20:21:26.376Z,14.70
2018-10-09T20:23:53.823Z,14.70
2018-10-09T20:26:21.218Z,14.70
2018-10-09T20:28:48.640Z,14.60
2018-10-09T20:31:16.122Z,14.50
2018-10-09T20:33:43.631Z,14.50
2018-10-09T20:36:11.047Z,14.50
2018-10-09T20:38:38.680Z,14.50
2018-10-09T20:41:06.257Z,14.50
2018-10-09T20:43:33.955Z,14.70
2018-10-09T20:46:01.493Z,14.60
2018-10-09T20:48:30.255Z,14.60
2018-10-09T20:50:57.645Z,14.60
2018-10-09T20:53:25.056Z,14.70
2018-10-09T20:55:52.505Z,14.60
2018-10-09T20:58:19.959Z,14.60
2018-10-09T21:00:47.352Z,14.60
2018-10-09T21:03:14.752Z,14.60
2018-10-09T21:05:42.300Z,14.60
2018-10-09T21:08:09.632Z,14.50
2018-10-09T21:10:37.023Z,14.60
2018-10-09T21:13:04.576Z,14.50
2018-10-09T21:15:31.964Z,14.40
2018-10-09T21:17:59.458Z,14.40
2018-10-09T21:20:26.879Z,14.30
2018-10-09T21:22:54.294Z,14.30
2018-10-09T21:25:21.721Z,14.30
2018-10-09T21:27:49.120Z,14.20
2018-10-09T21:30:17.615Z,14.20
2018-10-09T21:32:45.056Z,14.10
2018-10-09T21:35:12.484Z,14.10
2018-10-09T21:37:39.885Z,14.00
2018-10-09T21:40:07.372Z,13.90
2018-10-09T21:42:34.827Z,13.90
2018-10-09T21:45:02.229Z,14.00
2018-10-09T21:47:29.767Z,14.00
2018-10-09T21:49:57.234Z,14.00
2018-10-09T21:52:24.619Z,14.00
2018-10-09T21:54:52.017Z,14.00
2018-10-09T21:57:19.425Z,13.90
2018-10-09T21:59:46.931Z,13.90
2018-10-09T22:02:14.324Z,13.90
2018-10-09T22:04:41.791Z,13.90
2018-10-09T22:07:13.451Z,13.80
2018-10-09T22:09:40.899Z,13.80
2018-10-09T22:12:08.368Z,13.70
2018-10-09T22:14:35.751Z,13.70
2018-10-09T22:17:03.243Z,13.70
2018-10-09T22:19:30.659Z,13.60
2018-10-09T22:21:58.137Z,13.60
2018-10-09T22:24:25.619Z,13.60
2018-10-09T22:26:52.934Z,13.60
2018-10-09T22:29:20.336Z,13.60
2018-10-09T22:31:47.803Z,13.50
2018-10-09T22:34:15.247Z,13.50
2018-10-09T22:36:42.703Z,13.50
2018-10-09T22:39:10.607Z,13.40
2018-10-09T22:41:38.116Z,13.30
2018-10-09T22:44:05.655Z,13.30
2018-10-09T22:46:33.036Z,13.10
2018-10-09T22:49:00.525Z,13.10
2018-10-09T22:51:27.936Z,13.10
2018-10-09T22:53:55.465Z,13.10
2018-10-09T22:56:23.007Z,13.10
2018-10-09T22:58:50.413Z,13.10
2018-10-09T23:01:17.821Z,13.10
2018-10-09T23:03:45.259Z,13.00
2018-10-09T23:06:12.820Z,13.00
2018-10-09T23:08:40.207Z,13.00
2018-10-09T23:11:08.499Z,13.00
2018-10-09T23:13:36.004Z,13.00
2018-10-09T23:16:04.493Z,12.90
2018-10-09T23:18:31.892Z,12.90
2018-10-09T23:20:59.296Z,13.00
2018-10-09T23:23:26.740Z,13.00
2018-10-09T23:25:54.162Z,12.90
2018-10-09T23:28:21.683Z,12.90
2018-10-09T23:30:49.099Z,12.90
2018-10-09T23:33:17.573Z,12.90
2018-10-09T23:35:44.968Z,12.80
2018-10-09T23:38:12.451Z,12.90
2018-10-09T23:40:39.855Z,13.00
2018-10-09T23:43:07.307Z,12.90
2018-10-09T23:45:35.041Z,12.90
2018-10-09T23:48:07.477Z,12.80
2018-10-09T23:50:35.828Z,12.80
2018-10-09T23:53:03.340Z,12.90
2018-10-09T23:55:30.744Z,13.00
2018-10-09T23:57:58.160Z,12.90
